Time;durP1;ratioP1;P1;durP2;ratioP2;P2;SDS_P1;SDS_P2;PMS_P1;PMS_P2;Temp;Humidity;BMP_temperature;BMP_pressure;BME280_temperature;BME280_humidity;BME280_pressure;Samples;Min_cycle;Max_cycle;Signal;HPM_P1;HPM_P2
2023/09/11 00:01:57;;;;;;;6.95;6.00;;;27.80;97.50;;;;;;5012817;28;20173;-88
2023/09/11 00:04:23;;;;;;;6.43;5.82;;;27.80;97.60;;;;;;5014026;28;20237;-89
2023/09/11 00:06:49;;;;;;;6.40;5.72;;;27.80;97.50;;;;;;5013177;28;20216;-88
2023/09/11 00:09:15;;;;;;;6.65;6.05;;;27.80;97.60;;;;;;5013076;28;20186;-88
2023/09/11 00:11:44;;;;;;;6.70;6.00;;;27.70;97.60;;;;;;5012493;28;20528;-89
2023/09/11 00:14:12;;;;;;;7.23;5.87;;;27.80;97.60;;;;;;5010773;28;20548;-89
2023/09/11 00:16:41;;;;;;;6.88;6.10;;;27.70;97.60;;;;;;5011133;28;20177;-89
2023/09/11 00:19:12;;;;;;;6.23;5.53;;;27.70;97.60;;;;;;5013308;28;20256;-89
2023/09/11 00:21:47;;;;;;;7.03;5.85;;;27.70;97.60;;;;;;5011722;28;20258;-88
2023/09/11 00:24:13;;;;;;;6.90;6.13;;;27.70;97.60;;;;;;5013121;28;20423;-88
2023/09/11 00:26:45;;;;;;;6.60;5.77;;;27.70;97.60;;;;;;5013368;28;20375;-88
2023/09/11 00:29:14;;;;;;;6.67;5.97;;;27.70;97.60;;;;;;5014397;28;20201;-88
2023/09/11 00:31:42;;;;;;;7.25;6.10;;;27.70;97.60;;;;;;5012493;28;20241;-88
2023/09/11 00:34:11;;;;;;;6.50;5.87;;;27.70;97.70;;;;;;5012820;28;20224;-89
2023/09/11 00:36:40;;;;;;;6.38;5.78;;;27.70;97.70;;;;;;5013308;28;20287;-88
2023/09/11 00:39:06;;;;;;;7.13;6.20;;;27.70;97.60;;;;;;4964604;28;20173;-88
2023/09/11 00:41:34;;;;;;;7.80;6.07;;;27.70;97.70;;;;;;5011301;28;20227;-88
2023/09/11 00:44:03;;;;;;;7.20;5.40;;;27.70;97.70;;;;;;5011194;28;20204;-88
2023/09/11 00:46:32;;;;;;;7.00;5.83;;;27.60;97.70;;;;;;5010125;28;20174;-88
2023/09/11 00:49:00;;;;;;;8.10;6.30;;;27.60;97.70;;;;;;5010346;28;20507;-88
2023/09/11 00:51:29;;;;;;;6.23;5.43;;;27.60;97.70;;;;;;5009966;28;20185;-88
2023/09/11 00:53:58;;;;;;;6.45;5.85;;;27.60;97.70;;;;;;5012343;28;20285;-88
2023/09/11 00:56:29;;;;;;;8.63;5.53;;;27.60;97.60;;;;;;5012110;28;20189;-88
2023/09/11 00:58:55;;;;;;;7.57;5.63;;;27.60;97.70;;;;;;5012474;28;20432;-88
2023/09/11 01:01:26;;;;;;;6.37;5.77;;;27.60;97.70;;;;;;5014896;28;20264;-88
2023/09/11 01:03:55;;;;;;;8.33;6.33;;;27.60;97.70;;;;;;5015805;28;20178;-88
2023/09/11 01:06:23;;;;;;;6.40;5.70;;;27.60;97.70;;;;;;5017266;28;20177;-88
2023/09/11 01:08:55;;;;;;;7.77;6.00;;;27.50;97.70;;;;;;5016842;28;20229;-88
2023/09/11 01:11:20;;;;;;;9.20;5.90;;;27.60;97.70;;;;;;5015806;28;20182;-88
2023/09/11 01:13:52;;;;;;;6.40;5.63;;;27.50;97.70;;;;;;5016335;28;20243;-88
2023/09/11 01:16:27;;;;;;;6.07;5.47;;;27.50;97.70;;;;;;5017361;28;20208;-88
2023/09/11 01:19:10;;;;;;;7.00;5.90;;;27.50;97.70;;;;;;5016556;28;20177;-88
2023/09/11 01:22:01;;;;;;;6.63;5.90;;;27.50;97.70;;;;;;5015549;28;20303;-88
2023/09/11 01:24:54;;;;;;;6.50;5.80;;;27.50;97.70;;;;;;5014503;28;20544;-88
2023/09/11 01:28:09;;;;;;;6.60;5.90;;;27.50;97.70;;;;;;5015779;28;20209;-88
2023/09/11 01:30:35;;;;;;;6.33;5.70;;;27.50;97.70;;;;;;4906563;28;20190;-89
2023/09/11 01:33:01;;;;;;;7.25;5.88;;;27.40;97.70;;;;;;5013483;28;20449;-88
2023/09/11 01:35:27;;;;;;;7.70;5.67;;;27.40;97.70;;;;;;5013043;28;20200;-89
2023/09/11 01:37:55;;;;;;;7.57;5.90;;;27.40;97.70;;;;;;5012765;28;20597;-88
2023/09/11 01:40:28;;;;;;;7.30;5.67;;;27.40;97.70;;;;;;5013546;28;20177;-88
2023/09/11 01:42:56;;;;;;;8.10;6.10;;;27.40;97.70;;;;;;5014492;28;20388;-89
2023/09/11 01:45:23;;;;;;;6.93;5.80;;;27.40;97.80;;;;;;5014609;28;20263;-88
2023/09/11 01:47:54;;;;;;;6.97;5.73;;;27.40;97.80;;;;;;5015982;28;20251;-88
2023/09/11 01:50:22;;;;;;;6.32;5.72;;;27.40;97.80;;;;;;5015617;28;20169;-88
2023/09/11 01:52:50;;;;;;;6.40;5.70;;;27.40;97.80;;;;;;5015037;28;20182;-88
2023/09/11 01:55:16;;;;;;;8.63;5.77;;;27.40;97.80;;;;;;5015324;28;20165;-88
2023/09/11 01:57:42;;;;;;;7.37;5.40;;;27.40;97.70;;;;;;5014494;28;20186;-88
2023/09/11 02:00:09;;;;;;;6.50;5.70;;;27.40;97.70;;;;;;5015823;28;20174;-88
2023/09/11 02:02:35;;;;;;;6.27;5.67;;;27.40;97.70;;;;;;5012976;28;20481;-88
2023/09/11 02:05:01;;;;;;;6.13;5.53;;;27.40;97.80;;;;;;5014313;28;20177;-89
2023/09/11 02:07:30;;;;;;;6.20;5.60;;;27.30;97.70;;;;;;5014105;28;20547;-88
2023/09/11 02:09:56;;;;;;;6.80;5.43;;;27.30;98.00;;;;;;5015657;28;20169;-88
2023/09/11 02:12:25;;;;;;;6.53;5.93;;;27.30;97.80;;;;;;5015340;28;20239;-88
2023/09/11 02:14:51;;;;;;;6.60;5.90;;;27.30;97.80;;;;;;5014835;28;20178;-88
2023/09/11 02:17:19;;;;;;;7.40;6.10;;;27.30;97.70;;;;;;5015637;28;20178;-88
2023/09/11 02:19:48;;;;;;;6.07;5.35;;;27.30;97.70;;;;;;5021929;28;20182;-87
2023/09/11 02:22:16;;;;;;;7.67;5.90;;;27.30;97.80;;;;;;5016295;28;20173;-88
2023/09/11 02:24:45;;;;;;;7.73;6.17;;;27.30;97.70;;;;;;5016256;28;20173;-87
2023/09/11 02:27:13;;;;;;;6.60;5.90;;;27.30;98.00;;;;;;5020214;28;20265;-87
2023/09/11 02:29:48;;;;;;;7.83;6.00;;;27.20;97.80;;;;;;5019703;28;20169;-87
2023/09/11 02:32:24;;;;;;;7.47;5.80;;;27.20;97.70;;;;;;5013662;28;20519;-87
2023/09/11 02:34:59;;;;;;;6.23;5.63;;;27.20;97.70;;;;;;5013209;28;20176;-88
2023/09/11 02:37:34;;;;;;;8.60;5.77;;;27.20;97.70;;;;;;5013158;28;20306;-88
2023/09/11 02:40:00;;;;;;;7.63;6.00;;;27.20;97.70;;;;;;5013657;28;20501;-88
2023/09/11 02:42:25;;;;;;;6.35;5.75;;;27.20;97.70;;;;;;5013852;28;20709;-88
2023/09/11 02:44:51;;;;;;;6.40;5.80;;;27.20;97.70;;;;;;5013087;28;20242;-88
2023/09/11 02:47:16;;;;;;;6.83;5.63;;;27.20;97.70;;;;;;5011051;28;20241;-88
2023/09/11 02:49:45;;;;;;;6.30;5.60;;;27.20;97.70;;;;;;5013654;28;20197;-88
2023/09/11 02:52:13;;;;;;;7.50;5.93;;;27.10;97.70;;;;;;5011973;28;20184;-88
2023/09/11 02:54:39;;;;;;;8.03;5.90;;;27.20;97.70;;;;;;5012170;28;20235;-88
2023/09/11 02:57:05;;;;;;;7.67;5.57;;;27.20;97.70;;;;;;5010784;28;20189;-88
2023/09/11 02:59:38;;;;;;;7.07;5.73;;;27.10;97.70;;;;;;5011105;28;20551;-88
2023/09/11 03:02:04;;;;;;;7.00;5.73;;;27.20;97.70;;;;;;5010612;28;20457;-89
2023/09/11 03:04:30;;;;;;;7.13;5.70;;;27.10;97.70;;;;;;5010592;28;20177;-88
2023/09/11 03:06:58;;;;;;;6.93;5.90;;;27.10;97.70;;;;;;5009764;28;20212;-88
2023/09/11 03:09:27;;;;;;;6.70;6.00;;;27.10;97.70;;;;;;5008652;28;20173;-88
2023/09/11 03:11:53;;;;;;;6.30;5.67;;;27.10;97.70;;;;;;5010922;28;20182;-88
2023/09/11 03:14:23;;;;;;;9.03;5.70;;;27.10;97.70;;;;;;5011853;28;20491;-88
2023/09/11 03:16:50;;;;;;;7.23;5.63;;;27.10;97.70;;;;;;5014570;28;20193;-88
2023/09/11 03:19:15;;;;;;;6.73;5.97;;;27.10;97.70;;;;;;5013719;28;20355;-88
2023/09/11 03:21:44;;;;;;;7.53;5.90;;;27.10;97.70;;;;;;5013207;28;20650;-88
2023/09/11 03:24:10;;;;;;;8.77;5.60;;;27.10;97.70;;;;;;5013498;28;20484;-89
2023/09/11 03:26:40;;;;;;;6.43;5.70;;;27.10;97.70;;;;;;5012506;28;20173;-89
2023/09/11 03:29:09;;;;;;;7.40;5.70;;;27.10;97.70;;;;;;5012759;28;20235;-88
2023/09/11 03:31:35;;;;;;;6.20;5.60;;;27.00;97.70;;;;;;5012221;28;20197;-88
2023/09/11 03:34:04;;;;;;;6.83;5.83;;;27.00;97.60;;;;;;5011740;28;20169;-89
2023/09/11 03:36:32;;;;;;;7.97;6.33;;;27.10;97.70;;;;;;5011591;28;20201;-88
2023/09/11 03:39:04;;;;;;;6.70;5.83;;;27.00;98.00;;;;;;5011743;28;20190;-88
2023/09/11 03:41:33;;;;;;;7.03;6.20;;;27.00;97.60;;;;;;5010527;28;20228;-88
2023/09/11 03:43:59;;;;;;;6.17;5.57;;;27.00;97.60;;;;;;5011686;28;20185;-88
2023/09/11 03:46:28;;;;;;;7.63;6.00;;;27.00;97.60;;;;;;5010403;28;20234;-88
2023/09/11 03:49:00;;;;;;;6.93;5.57;;;27.00;97.70;;;;;;5012516;28;20244;-88
2023/09/11 03:51:28;;;;;;;7.37;5.33;;;27.00;97.70;;;;;;5010747;28;20567;-88
2023/09/11 03:54:06;;;;;;;7.10;5.47;;;27.00;97.60;;;;;;5009253;28;20410;-88
2023/09/11 03:56:32;;;;;;;7.00;5.90;;;26.90;97.60;;;;;;5010755;28;20177;-88
2023/09/11 03:59:00;;;;;;;6.97;5.97;;;26.90;97.60;;;;;;5011554;28;20232;-88
2023/09/11 04:01:29;;;;;;;6.83;5.80;;;26.90;97.60;;;;;;5010842;28;20177;-88
2023/09/11 04:03:58;;;;;;;7.30;6.23;;;27.00;97.60;;;;;;5011844;28;20489;-88
2023/09/11 04:06:23;;;;;;;8.23;5.80;;;26.90;97.60;;;;;;5011075;28;20239;-88
2023/09/11 04:08:58;;;;;;;7.53;6.70;;;26.90;97.60;;;;;;5012097;28;20209;-88
2023/09/11 04:11:27;;;;;;;8.03;6.07;;;26.90;97.70;;;;;;5012255;28;20176;-88
2023/09/11 04:13:55;;;;;;;7.97;5.77;;;26.90;97.60;;;;;;5011274;28;20169;-88
2023/09/11 04:16:30;;;;;;;7.63;6.20;;;26.80;97.50;;;;;;5012600;28;20174;-89
2023/09/11 04:18:56;;;;;;;6.60;5.80;;;26.90;97.60;;;;;;5011293;28;20389;-89
2023/09/11 04:21:31;;;;;;;7.17;6.17;;;26.90;97.60;;;;;;5009208;28;20308;-89
2023/09/11 04:24:12;;;;;;;7.03;5.93;;;26.90;97.60;;;;;;5010040;28;20184;-89
2023/09/11 04:26:45;;;;;;;7.97;6.20;;;26.80;97.60;;;;;;5009579;28;20170;-88
2023/09/11 04:29:14;;;;;;;8.20;6.37;;;26.80;97.90;;;;;;5009723;28;20170;-89
2023/09/11 04:31:39;;;;;;;8.80;6.60;;;26.80;97.50;;;;;;5007739;28;20453;-89
2023/09/11 04:34:08;;;;;;;8.10;6.17;;;26.80;97.60;;;;;;5007751;28;20166;-89
2023/09/11 04:36:37;;;;;;;9.40;6.30;;;26.80;97.60;;;;;;5011690;28;20204;-89
2023/09/11 04:39:27;;;;;;;7.43;5.67;;;26.80;97.70;;;;;;5013386;28;20173;-88
2023/09/11 04:41:59;;;;;;;6.37;5.77;;;26.80;97.60;;;;;;5013691;28;20177;-88
2023/09/11 04:44:31;;;;;;;9.50;6.03;;;26.80;97.60;;;;;;5013181;28;20610;-89
2023/09/11 04:47:00;;;;;;;6.67;5.97;;;26.80;97.60;;;;;;5013658;28;20197;-88
2023/09/11 04:49:25;;;;;;;8.23;6.27;;;26.80;97.60;;;;;;5015730;28;20177;-89
2023/09/11 04:51:52;;;;;;;6.30;5.70;;;26.80;97.50;;;;;;5013774;28;20205;-89
2023/09/11 04:54:20;;;;;;;6.83;6.13;;;26.80;97.50;;;;;;5013011;28;20178;-89
2023/09/11 04:56:52;;;;;;;8.73;6.33;;;26.70;97.40;;;;;;5012991;28;20177;-88
2023/09/11 04:59:27;;;;;;;6.63;5.47;;;26.70;97.40;;;;;;5012505;28;20198;-89
2023/09/11 05:01:56;;;;;;;8.20;6.30;;;26.70;97.40;;;;;;5012251;28;20169;-89
2023/09/11 05:04:30;;;;;;;6.57;5.53;;;26.70;97.40;;;;;;5011679;28;20181;-89
2023/09/11 05:06:59;;;;;;;9.57;5.83;;;26.70;97.30;;;;;;5009579;28;22163;-88
2023/09/11 05:09:24;;;;;;;9.17;6.67;;;26.70;97.40;;;;;;5010931;28;20184;-88
2023/09/11 05:11:50;;;;;;;6.90;5.73;;;26.70;97.30;;;;;;5010323;28;20166;-89
2023/09/11 05:14:19;;;;;;;7.73;6.13;;;26.70;97.30;;;;;;5006649;28;20223;-89
2023/09/11 05:16:47;;;;;;;6.40;5.73;;;26.70;97.30;;;;;;5008130;28;20452;-88
2023/09/11 05:19:13;;;;;;;7.30;6.00;;;26.60;97.20;;;;;;5008322;28;20219;-89
2023/09/11 05:21:42;;;;;;;6.93;6.23;;;26.60;97.30;;;;;;5015198;28;20174;-89
2023/09/11 05:24:22;;;;;;;6.97;6.00;;;26.70;97.30;;;;;;5011847;28;20173;-89
2023/09/11 05:26:51;;;;;;;7.37;6.40;;;26.60;97.20;;;;;;5005301;28;20177;-89
2023/09/11 05:29:20;;;;;;;8.00;6.40;;;26.60;97.20;;;;;;5007821;28;20173;-88
2023/09/11 05:31:46;;;;;;;7.47;6.40;;;26.60;97.20;;;;;;5010110;28;20181;-88
2023/09/11 05:34:13;;;;;;;7.53;6.50;;;26.60;97.20;;;;;;5005602;28;20213;-88
2023/09/11 05:36:39;;;;;;;6.83;6.13;;;26.60;97.30;;;;;;5007518;28;20174;-88
2023/09/11 05:39:26;;;;;;;9.13;6.77;;;26.60;97.20;;;;;;5006259;28;20272;-88
2023/09/11 05:41:52;;;;;;;11.57;6.27;;;26.60;97.20;;;;;;5004247;28;20288;-89
2023/09/11 05:44:20;;;;;;;7.30;6.40;;;26.60;97.20;;;;;;5005713;28;20285;-88
2023/09/11 05:46:46;;;;;;;7.80;6.23;;;26.60;97.10;;;;;;5005947;28;20177;-89
2023/09/11 05:49:12;;;;;;;9.03;6.60;;;26.60;97.20;;;;;;5005131;28;20177;-88
2023/09/11 05:51:40;;;;;;;7.30;6.60;;;26.50;97.10;;;;;;5005550;28;20176;-88
2023/09/11 05:54:06;;;;;;;11.03;6.87;;;26.60;97.20;;;;;;5002868;28;20256;-88
2023/09/11 05:56:32;;;;;;;9.00;6.53;;;26.60;97.20;;;;;;5003240;28;20169;-88
2023/09/11 05:59:06;;;;;;;7.90;6.80;;;26.60;97.20;;;;;;5003212;28;20376;-88
2023/09/11 06:01:32;;;;;;;8.48;6.65;;;26.60;97.20;;;;;;5002476;28;20184;-88
2023/09/11 06:03:58;;;;;;;9.47;7.40;;;26.60;97.10;;;;;;5002066;28;20488;-88
2023/09/11 06:06:24;;;;;;;11.27;6.97;;;26.60;97.10;;;;;;5002532;28;20280;-88
2023/09/11 06:08:49;;;;;;;8.87;7.03;;;26.60;97.00;;;;;;5003533;28;20278;-88
2023/09/11 06:11:15;;;;;;;9.97;6.63;;;26.60;97.00;;;;;;5004976;28;20173;-88
2023/09/11 06:13:44;;;;;;;8.73;7.13;;;26.60;97.00;;;;;;5005023;28;20178;-88
2023/09/11 06:16:12;;;;;;;8.07;6.77;;;26.60;97.00;;;;;;5006613;28;20193;-88
2023/09/11 06:18:41;;;;;;;8.50;6.83;;;26.60;96.90;;;;;;5007501;28;20482;-88
2023/09/11 06:21:09;;;;;;;10.85;7.05;;;26.60;96.90;;;;;;5005909;28;20363;-88
2023/09/11 06:23:38;;;;;;;9.83;7.60;;;26.60;96.80;;;;;;5005846;28;20213;-88
2023/09/11 06:26:06;;;;;;;10.30;7.40;;;26.60;96.70;;;;;;5007225;28;20213;-88
2023/09/11 06:28:32;;;;;;;9.37;7.20;;;26.60;96.70;;;;;;5005696;28;20247;-88
2023/09/11 06:31:00;;;;;;;9.70;7.70;;;26.70;96.70;;;;;;5010634;28;20272;-88
2023/09/11 06:33:29;;;;;;;8.90;7.20;;;26.70;96.60;;;;;;5011668;28;20208;-87
2023/09/11 06:35:57;;;;;;;9.60;7.43;;;26.70;96.60;;;;;;5004649;28;20196;-88
2023/09/11 06:38:23;;;;;;;10.53;7.13;;;26.80;96.60;;;;;;5003910;28;20177;-88
2023/09/11 06:40:52;;;;;;;9.57;7.47;;;26.80;96.50;;;;;;5003524;28;20181;-89
2023/09/11 06:43:21;;;;;;;7.70;6.90;;;26.80;96.40;;;;;;5000083;28;20503;-88
2023/09/11 06:45:56;;;;;;;9.00;7.07;;;26.80;96.40;;;;;;5002405;28;20469;-88
2023/09/11 06:48:26;;;;;;;12.07;6.83;;;26.80;96.30;;;;;;5002589;28;20268;-88
2023/09/11 06:50:53;;;;;;;9.03;7.43;;;26.80;96.20;;;;;;5004695;28;20364;-88
2023/09/11 06:53:19;;;;;;;7.63;6.80;;;26.90;96.20;;;;;;5005738;28;20256;-88
2023/09/11 06:55:46;;;;;;;9.20;6.78;;;26.90;96.10;;;;;;5004287;28;20272;-88
2023/09/11 06:58:15;;;;;;;7.65;6.82;;;26.90;96.00;;;;;;5005186;28;20185;-89
2023/09/11 07:00:43;;;;;;;7.90;6.43;;;27.00;96.00;;;;;;5003018;28;20189;-88
2023/09/11 07:03:09;;;;;;;7.78;6.80;;;27.00;95.90;;;;;;5005869;28;20413;-88
2023/09/11 07:05:36;;;;;;;8.20;6.30;;;27.00;95.70;;;;;;5008552;28;20212;-88
2023/09/11 07:08:11;;;;;;;9.75;6.70;;;27.10;95.70;;;;;;5008864;28;20576;-88
2023/09/11 07:10:40;;;;;;;7.10;6.18;;;27.10;95.60;;;;;;5004470;28;20173;-89
2023/09/11 07:13:05;;;;;;;7.15;6.00;;;27.10;95.50;;;;;;4991046;28;20272;-89
2023/09/11 07:15:34;;;;;;;7.43;6.35;;;27.20;95.50;;;;;;5001214;28;20459;-88
2023/09/11 07:18:03;;;;;;;8.88;6.20;;;27.20;95.30;;;;;;5005200;28;20169;-88
2023/09/11 07:20:31;;;;;;;9.68;6.28;;;27.30;95.20;;;;;;5003319;28;20177;-89
2023/09/11 07:23:00;;;;;;;8.75;6.53;;;27.30;95.20;;;;;;5004162;28;20244;-88
2023/09/11 07:25:29;;;;;;;7.57;6.55;;;27.40;95.10;;;;;;5004953;28;20181;-89
2023/09/11 07:27:54;;;;;;;7.07;6.38;;;27.40;95.30;;;;;;5003756;28;20316;-88
2023/09/11 07:30:20;;;;;;;7.85;6.30;;;27.40;94.90;;;;;;5001101;28;20284;-89
2023/09/11 07:32:47;;;;;;;8.82;6.68;;;27.50;94.80;;;;;;5002666;28;20170;-88
2023/09/11 07:35:16;;;;;;;8.90;6.03;;;27.50;94.70;;;;;;5005363;28;20546;-88
2023/09/11 07:37:44;;;;;;;8.13;6.32;;;27.50;94.60;;;;;;5005575;28;20185;-86
2023/09/11 07:40:13;;;;;;;8.23;6.32;;;27.60;94.60;;;;;;5002974;28;20232;-86
2023/09/11 07:42:38;;;;;;;8.80;6.95;;;27.60;94.40;;;;;;5003593;28;20180;-86
2023/09/11 07:45:06;;;;;;;7.80;6.18;;;27.70;94.40;;;;;;5002614;28;20181;-87
2023/09/11 07:47:35;;;;;;;8.50;6.80;;;27.70;94.20;;;;;;5003166;28;20463;-87
2023/09/11 07:50:04;;;;;;;6.72;6.10;;;27.70;94.10;;;;;;5003901;28;20242;-87
2023/09/11 07:52:29;;;;;;;6.90;6.20;;;27.80;94.00;;;;;;5004494;28;20178;-87
2023/09/11 07:54:58;;;;;;;8.00;6.13;;;27.90;93.90;;;;;;5003148;28;20180;-87
2023/09/11 07:57:27;;;;;;;6.57;5.85;;;27.90;93.70;;;;;;5004791;28;20225;-87
2023/09/11 08:00:04;;;;;;;6.70;5.97;;;28.00;93.60;;;;;;5004722;28;20174;-88
2023/09/11 08:02:30;;;;;;;8.15;6.30;;;28.00;93.50;;;;;;5002851;28;20173;-87
2023/09/11 08:04:56;;;;;;;7.00;6.30;;;28.00;93.30;;;;;;5002559;28;20220;-87
2023/09/11 08:07:25;;;;;;;7.05;5.95;;;28.10;93.30;;;;;;5005017;28;20307;-87
2023/09/11 08:09:59;;;;;;;6.95;5.90;;;28.10;93.20;;;;;;5004666;28;20292;-87
2023/09/11 08:12:24;;;;;;;7.55;5.75;;;28.10;93.10;;;;;;5006643;28;20174;-88
2023/09/11 08:14:53;;;;;;;7.22;5.60;;;28.20;93.00;;;;;;5004437;28;20418;-87
2023/09/11 08:17:22;;;;;;;7.22;5.65;;;28.30;93.00;;;;;;5005115;28;20431;-89
2023/09/11 08:19:47;;;;;;;6.47;5.82;;;28.30;92.80;;;;;;5012857;28;20181;-88
2023/09/11 08:22:13;;;;;;;7.15;5.60;;;28.30;92.80;;;;;;5004733;28;20255;-88
2023/09/11 08:24:38;;;;;;;7.70;5.80;;;28.30;92.60;;;;;;5003900;28;20174;-88
2023/09/11 08:27:10;;;;;;;6.10;5.47;;;28.40;92.50;;;;;;5001335;28;20180;-88
2023/09/11 08:29:36;;;;;;;8.00;5.80;;;28.50;92.40;;;;;;5001133;28;20437;-88
2023/09/11 08:32:02;;;;;;;7.43;5.32;;;28.50;92.20;;;;;;5004018;28;20385;-88
2023/09/11 08:34:28;;;;;;;6.57;5.53;;;28.60;92.00;;;;;;5000537;28;20300;-88
2023/09/11 08:37:00;;;;;;;6.47;5.57;;;28.70;91.80;;;;;;5002324;28;20292;-88
2023/09/11 08:39:28;;;;;;;6.70;5.47;;;28.90;91.50;;;;;;5003281;28;20342;-89
2023/09/11 08:41:58;;;;;;;5.93;5.38;;;29.10;90.90;;;;;;5004820;28;20224;-88
2023/09/11 08:44:27;;;;;;;6.22;5.47;;;29.30;90.30;;;;;;5004516;28;20267;-88
2023/09/11 08:46:58;;;;;;;6.45;5.78;;;29.50;88.90;;;;;;5003045;28;20185;-89
2023/09/11 08:49:29;;;;;;;6.50;5.47;;;29.80;87.20;;;;;;5004269;28;20235;-88
2023/09/11 08:52:08;;;;;;;7.20;5.75;;;29.90;86.00;;;;;;5004571;28;20197;-88
2023/09/11 08:54:39;;;;;;;6.47;5.50;;;30.00;85.20;;;;;;5005207;28;20169;-88
2023/09/11 08:57:06;;;;;;;8.23;5.78;;;30.10;84.70;;;;;;5003977;28;20166;-88
2023/09/11 08:59:40;;;;;;;8.13;5.43;;;30.10;84.30;;;;;;5003575;28;20184;-88
2023/09/11 09:02:07;;;;;;;7.38;5.28;;;30.10;84.10;;;;;;5001462;28;20258;-88
2023/09/11 09:04:34;;;;;;;5.38;4.88;;;30.10;83.90;;;;;;5005298;28;20391;-88
2023/09/11 09:07:07;;;;;;;6.32;5.07;;;30.10;83.70;;;;;;5006619;28;20445;-88
2023/09/11 09:09:33;;;;;;;5.97;5.40;;;30.10;83.60;;;;;;5007816;28;20158;-86
2023/09/11 09:12:01;;;;;;;6.00;5.40;;;30.10;83.60;;;;;;5007789;28;20248;-86
2023/09/11 09:14:33;;;;;;;6.03;5.43;;;30.10;83.50;;;;;;5003938;28;20170;-87
2023/09/11 09:17:02;;;;;;;7.75;5.68;;;30.10;83.30;;;;;;5004491;28;20182;-87
2023/09/11 09:19:31;;;;;;;5.72;5.07;;;30.20;83.40;;;;;;5001331;28;20584;-87
2023/09/11 09:22:24;;;;;;;6.32;5.32;;;30.20;83.20;;;;;;5001753;28;20184;-87
2023/09/11 09:24:54;;;;;;;5.88;5.38;;;30.20;83.20;;;;;;5005534;28;20185;-87
2023/09/11 09:27:26;;;;;;;6.47;4.85;;;30.20;83.20;;;;;;5004694;28;20260;-87
2023/09/11 09:29:55;;;;;;;5.80;5.05;;;30.20;83.20;;;;;;5006321;28;20275;-87
2023/09/11 09:32:21;;;;;;;5.47;4.85;;;30.20;83.20;;;;;;5006935;28;20217;-87
2023/09/11 09:34:54;;;;;;;5.60;4.97;;;30.20;83.30;;;;;;5005253;28;20532;-87
2023/09/11 09:37:21;;;;;;;7.97;5.20;;;30.10;83.70;;;;;;5004800;28;20464;-87
2023/09/11 09:39:51;;;;;;;5.82;5.22;;;30.10;83.30;;;;;;5006726;28;20170;-87
2023/09/11 09:42:23;;;;;;;5.47;4.80;;;30.10;83.40;;;;;;5005769;28;20181;-87
2023/09/11 09:44:55;;;;;;;8.27;4.63;;;30.10;83.30;;;;;;5003561;28;20197;-87
2023/09/11 09:47:24;;;;;;;5.78;5.05;;;30.10;83.50;;;;;;5003487;28;20217;-87
2023/09/11 09:49:59;;;;;;;5.93;4.85;;;30.10;83.80;;;;;;5002834;28;20166;-87
2023/09/11 09:52:31;;;;;;;5.10;4.65;;;30.10;84.50;;;;;;5003072;28;20176;-87
2023/09/11 09:55:02;;;;;;;5.65;4.85;;;30.10;84.00;;;;;;4986317;28;20185;-87
2023/09/11 09:57:31;;;;;;;5.30;4.90;;;30.00;84.40;;;;;;5001372;28;20646;-87
2023/09/11 09:59:59;;;;;;;5.10;4.60;;;30.00;84.70;;;;;;5003569;28;20213;-87
2023/09/11 10:02:37;;;;;;;6.88;4.88;;;30.00;84.70;;;;;;5007913;28;20206;-87
2023/09/11 10:05:08;;;;;;;5.50;4.70;;;30.00;84.90;;;;;;5005919;28;20267;-88
2023/09/11 10:07:46;;;;;;;5.03;4.53;;;30.00;84.90;;;;;;5003577;28;20216;-87
2023/09/11 10:10:25;;;;;;;5.35;4.68;;;30.00;85.00;;;;;;5001499;28;20653;-87
2023/09/11 10:13:04;;;;;;;5.22;4.72;;;30.00;85.30;;;;;;5004921;28;20185;-87
2023/09/11 10:15:32;;;;;;;5.03;4.53;;;29.90;85.30;;;;;;5002227;28;20521;-87
2023/09/11 10:18:06;;;;;;;5.88;4.90;;;29.90;85.50;;;;;;5004353;28;20208;-87
2023/09/11 10:20:35;;;;;;;5.70;4.75;;;29.90;85.90;;;;;;5003864;28;20182;-87
2023/09/11 10:23:05;;;;;;;5.20;4.70;;;29.80;86.10;;;;;;5004307;28;20594;-87
2023/09/11 10:25:37;;;;;;;5.38;4.88;;;29.80;86.70;;;;;;5004470;28;20193;-87
2023/09/11 10:28:07;;;;;;;5.30;4.60;;;29.70;87.30;;;;;;5004139;28;20516;-87
2023/09/11 10:31:16;;;;;;;5.40;4.70;;;29.60;87.80;;;;;;5003627;28;20178;-88
2023/09/11 10:33:45;;;;;;;5.20;4.70;;;29.60;88.40;;;;;;5003644;28;20173;-88
2023/09/11 10:36:17;;;;;;;5.05;4.55;;;29.50;88.90;;;;;;5004664;28;20174;-87
2023/09/11 10:38:48;;;;;;;6.28;4.93;;;29.50;89.20;;;;;;5004327;28;20551;-87
2023/09/11 10:41:14;;;;;;;5.25;4.72;;;29.50;89.50;;;;;;5005424;28;20260;-87
2023/09/11 10:43:41;;;;;;;4.88;4.40;;;29.50;89.60;;;;;;5005610;28;20268;-87
2023/09/11 10:46:20;;;;;;;5.35;4.65;;;29.50;89.70;;;;;;5004853;28;20463;-87
2023/09/11 10:48:55;;;;;;;5.57;4.70;;;29.50;89.90;;;;;;5002383;28;20255;-87
2023/09/11 10:51:24;;;;;;;4.93;4.43;;;29.50;90.00;;;;;;5002869;28;20172;-87
2023/09/11 10:53:53;;;;;;;5.10;4.43;;;29.50;90.10;;;;;;5001516;28;20617;-87
2023/09/11 10:56:18;;;;;;;4.25;3.95;;;29.50;90.10;;;;;;4999909;28;20447;-87
2023/09/11 10:58:53;;;;;;;4.97;4.57;;;29.60;90.10;;;;;;5001004;28;20180;-87
2023/09/11 11:01:23;;;;;;;4.65;4.20;;;29.60;90.20;;;;;;5011806;28;20173;-88
2023/09/11 11:03:52;;;;;;;5.65;4.63;;;29.60;90.20;;;;;;5004994;28;20169;-88
2023/09/11 11:06:23;;;;;;;5.10;4.60;;;29.60;90.20;;;;;;5002618;28;20466;-88
2023/09/11 11:08:49;;;;;;;5.63;4.13;;;29.60;90.20;;;;;;4999717;28;20217;-88
2023/09/11 11:11:27;;;;;;;5.63;4.35;;;29.60;90.20;;;;;;5000415;28;20181;-88
2023/09/11 11:14:15;;;;;;;4.90;4.50;;;29.60;90.20;;;;;;5001870;28;20289;-89
2023/09/11 11:16:53;;;;;;;5.57;4.60;;;29.60;90.30;;;;;;5003675;28;20166;-88
2023/09/11 11:19:26;;;;;;;6.43;4.80;;;29.60;90.30;;;;;;5002941;28;20440;-87
2023/09/11 11:21:51;;;;;;;6.78;4.40;;;29.70;90.30;;;;;;5002784;28;20264;-87
2023/09/11 11:24:24;;;;;;;5.78;4.30;;;29.60;90.40;;;;;;5001829;28;20178;-87
2023/09/11 11:26:56;;;;;;;5.47;4.05;;;29.70;90.40;;;;;;5000311;28;20173;-87
2023/09/11 11:29:23;;;;;;;5.13;4.40;;;29.70;90.50;;;;;;5001380;28;20245;-87
2023/09/11 11:32:02;;;;;;;4.78;4.32;;;29.70;90.80;;;;;;5003529;28;20173;-87
2023/09/11 11:34:31;;;;;;;4.88;4.47;;;29.70;90.60;;;;;;5002627;28;20173;-87
2023/09/11 11:37:03;;;;;;;4.55;4.15;;;29.70;90.60;;;;;;5001614;28;20700;-87
2023/09/11 11:39:39;;;;;;;4.60;3.90;;;29.70;90.60;;;;;;5001823;28;20274;-87
2023/09/11 11:42:07;;;;;;;4.50;4.03;;;29.70;90.70;;;;;;5002287;28;20543;-88
2023/09/11 11:44:34;;;;;;;4.82;4.15;;;29.70;90.60;;;;;;5004007;28;20190;-88
2023/09/11 11:47:03;;;;;;;5.47;4.10;;;29.70;90.80;;;;;;5001061;28;20285;-89
2023/09/11 11:49:41;;;;;;;4.53;4.07;;;29.70;90.70;;;;;;5002686;28;20551;-88
2023/09/11 11:52:07;;;;;;;4.75;4.35;;;29.70;90.90;;;;;;5002714;28;20353;-88
2023/09/11 11:54:34;;;;;;;4.28;3.88;;;29.70;90.90;;;;;;5001419;28;20177;-88
2023/09/11 11:57:05;;;;;;;4.95;4.10;;;29.70;90.90;;;;;;5001846;28;20526;-88
2023/09/11 11:59:38;;;;;;;4.57;4.00;;;29.70;91.00;;;;;;5001521;28;20791;-88
2023/09/11 12:02:30;;;;;;;4.40;4.00;;;29.70;91.20;;;;;;5003911;28;20177;-88
2023/09/11 12:04:58;;;;;;;4.85;4.07;;;29.70;91.00;;;;;;5003810;28;20536;-88
2023/09/11 12:07:27;;;;;;;5.00;4.18;;;29.70;91.00;;;;;;5002353;28;20217;-87
2023/09/11 12:09:53;;;;;;;4.90;4.10;;;29.70;91.00;;;;;;5006006;28;20538;-87
2023/09/11 12:12:22;;;;;;;6.70;4.18;;;29.70;91.10;;;;;;5001695;28;20280;-87
2023/09/11 12:14:52;;;;;;;4.47;4.07;;;29.70;91.00;;;;;;5003537;28;20188;-88
2023/09/11 12:17:21;;;;;;;5.00;3.90;;;29.70;91.00;;;;;;5001642;28;20462;-88
2023/09/11 12:19:47;;;;;;;4.97;4.10;;;29.70;91.20;;;;;;5000620;28;20177;-88
2023/09/11 12:22:13;;;;;;;5.80;3.85;;;29.70;91.30;;;;;;4998581;28;20184;-88
2023/09/11 12:24:47;;;;;;;6.18;4.20;;;29.70;91.20;;;;;;5000643;28;20217;-88
2023/09/11 12:27:13;;;;;;;4.22;3.78;;;29.70;91.30;;;;;;4999453;28;20169;-87
2023/09/11 12:29:43;;;;;;;6.07;4.03;;;29.70;91.20;;;;;;4999719;28;20423;-88
2023/09/11 12:32:09;;;;;;;4.80;4.28;;;29.70;91.30;;;;;;5001345;28;20182;-87
2023/09/11 12:34:47;;;;;;;5.68;4.10;;;29.70;91.30;;;;;;5004398;28;20361;-87
2023/09/11 12:37:16;;;;;;;4.40;4.00;;;29.70;91.30;;;;;;5001896;28;20391;-87
2023/09/11 12:39:41;;;;;;;5.03;4.25;;;29.70;91.30;;;;;;5001134;28;20534;-87
2023/09/11 12:42:07;;;;;;;4.55;3.80;;;29.70;91.40;;;;;;5002193;28;20436;-87
2023/09/11 12:44:33;;;;;;;5.18;4.10;;;29.70;91.40;;;;;;4998830;28;20200;-87
2023/09/11 12:47:02;;;;;;;5.95;4.00;;;29.70;91.50;;;;;;5000580;28;20166;-88
2023/09/11 12:49:28;;;;;;;5.20;3.95;;;29.70;91.50;;;;;;4997858;28;20469;-87
2023/09/11 12:51:57;;;;;;;4.78;4.38;;;29.70;91.60;;;;;;4998049;28;20178;-87
2023/09/11 12:54:31;;;;;;;4.60;4.20;;;29.70;91.60;;;;;;4998141;28;20304;-87
2023/09/11 12:57:05;;;;;;;5.05;4.10;;;29.70;91.60;;;;;;5001811;28;20192;-88
2023/09/11 12:59:33;;;;;;;5.90;4.00;;;29.70;91.60;;;;;;5005861;28;20192;-87